Colfax, CA (95713)

5:41 AM PST on February 06, 2016 (GMT -0800)
Sun Valley Mountain Top | | Change Station
CLOSE
Current Station
Personal Weather Station
Location: Weimar, CA
Elevation: 2218 ft
Nearby Weather Stations

Elev 2218 ft 39.02 °N, 120.97 °W | Updated 30 seconds ago

Clear
Clear
43.3 °F
Feels Like 43 °F
N
0.2
Wind Variable Wind from NNW
Gusts 2.5 mph

Today
High -- | Low -- °F
--% Chance of Precip.
Yesterday
High -- | Low -- °F
Precip. -- in
Pressure 30.41 in
Visibility 10.0 miles
Clouds Clear
Windchill 43 °F
Dew Point 28 °F
Humidity 54%
Rainfall 0.00 in
Snow Depth Not available.
7:05 AM 5:30 PM
Waning Crescent, 5% visible
METAR KAUN 061335Z AUTO 09003KT 10SM CLR 05/01 A3041 RMK AO1
Pressure 30.41 in
Visibility 10.0 miles
Clouds Clear
Windchill 43 °F
Dew Point 28 °F
Humidity 54%
Rainfall 0.00 in
Snow Depth Not available.
7:05 AM 5:30 PM
Waning Crescent, 5% visible
METAR KAUN 061335Z AUTO 09003KT 10SM CLR 05/01 A3041 RMK AO1

10-Day Weather Forecast

Almanac

Astronomy

Feb. 06, 2016 Rise Set
Actual Time
Civil Twilight
Nautical Twilight
Astronomical Twilight
Moon
Length of Visible Light
Length of Day
Tomorrow will be .
, % of the Moon is Illuminated

Today's Extremes

State Highs State Lows

Community

WunderPhotos

Upload Photos

1,890,971 photos uploaded!

WunderBlog® & News

Nearby

Air Quality

  Air Quality AQ Index Pollutant
Not available.

Snow Depth

Station Depth Elevation

Earthquake Activity

City Distance Mag. Time & Date
Minimum magnitude displayed is 2.5.

Coastal Water Temperatures

Place Temperature

Stations

Nearby Weather Stations

Station Location Temp. Windchill Dew Point Humidity Wind Precip. Elev Updated Type
                   

Watches & Warnings

There are currently no watches in effect.